Date,TemperatureHighF,TemperatureAvgF,TemperatureLowF,DewpointHighF,DewpointAvgF,DewpointLowF,HumidityHigh,HumidityAvg,HumidityLow,PressureMaxIn,PressureMinIn,WindSpeedMaxMPH,WindSpeedAvgMPH,GustSpeedMaxMPH,PrecipitationSumIn
2013-1-1,35.5,33.0,30.0,27.2,25.4,22.1,86,74,60,30.14,30.04,18,9,45,0.01
2013-1-2,30.0,25.4,23.0,22.7,15.3,10.7,80,65,51,30.36,30.11,20,8,35,0.00
2013-1-3,33.4,27.4,22.2,17.5,14.1,7.5,66,57,47,30.35,30.26,17,7,37,0.00
2013-1-4,30.4,28.1,26.0,18.9,17.5,15.7,68,64,60,30.35,30.28,22,13,49,0.00
2013-1-5,41.8,32.2,25.8,20.6,17.5,15.3,70,55,38,30.48,30.28,20,7,41,0.00
2013-1-6,38.3,36.2,34.3,28.4,24.4,20.3,76,62,54,30.28,30.14,15,6,29,0.00
2013-1-7,34.3,31.0,26.3,27.0,22.1,19.2,77,70,60,30.58,30.29,16,7,32,0.00
2013-1-8,47.9,34.5,23.0,27.0,22.1,18.5,86,62,39,30.51,30.45,8,2,19,0.00
2013-1-9,52.5,43.0,32.2,42.6,31.8,22.1,81,65,48,30.54,30.35,17,6,36,0.00
2013-1-10,49.8,41.6,35.6,30.8,26.8,23.2,69,56,43,30.71,30.54,18,3,33,0.00
2013-1-11,39.2,37.1,34.7,37.6,31.3,24.9,99,81,59,30.54,30.22,5,1,10,0.03
2013-1-12,63.2,47.9,36.8,52.1,43.9,36.5,100,88,62,30.28,30.15,6,2,11,0.01
2013-1-13,64.0,55.1,43.8,53.4,48.9,43.5,100,81,60,30.15,30.00,6,2,11,0.01
2013-1-14,60.7,44.4,32.5,55.0,38.6,30.2,96,80,67,30.45,30.00,25,6,40,0.18
2013-1-15,35.0,32.6,30.4,33.3,31.1,28.9,98,94,83,30.48,30.26,6,2,13,0.08
2013-1-16,39.2,34.5,30.0,37.6,31.6,25.1,100,90,61,30.26,29.99,13,4,25,0.11
2013-1-17,37.3,33.7,31.3,27.2,24.2,20.3,77,68,53,30.27,30.14,21,7,33,0.00
2013-1-18,34.0,29.1,21.1,22.4,9.4,0.2,70,46,24,30.62,30.24,26,8,46,0.00
2013-1-19,54.8,45.1,33.2,16.0,10.6,4.8,40,25,16,30.47,29.99,17,5,39,0.00
2013-1-20,47.7,39.7,26.6,27.2,14.2,2.3,56,36,20,30.20,29.91,26,12,53,0.00
2013-1-21,37.0,26.4,14.6,17.9,8.2,-0.7,76,48,22,30.21,29.96,22,8,44,0.00
2013-1-22,14.3,9.3,5.4,1.4,-6.1,-10.4,68,49,38,30.46,30.11,23,13,50,0.00
2013-1-23,16.5,11.9,6.3,10.4,-2.5,-5.7,83,53,37,30.49,30.25,15,6,30,0.00
2013-1-24,18.8,14.3,10.7,10.9,2.8,-5.1,87,62,41,30.71,30.22,18,7,32,0.00
2013-1-25,23.8,12.3,8.8,18.6,2.8,-4.8,91,66,48,30.69,30.20,12,2,24,0.00
2013-1-26,26.6,23.2,21.1,19.6,15.0,9.8,85,71,60,30.60,30.18,16,7,32,0.00
2013-1-27,32.9,25.4,18.6,17.6,13.4,8.7,68,60,49,30.71,30.57,9,2,21,0.00
2013-1-28,53.1,37.2,25.8,49.5,33.2,16.1,99,86,64,30.57,30.17,12,4,33,0.09
2013-1-29,68.9,59.1,52.0,53.3,50.0,47.0,93,74,51,30.20,29.98,8,2,28,0.00
2013-1-30,69.3,57.2,50.4,56.0,51.1,45.4,99,81,62,29.98,29.33,17,5,38,0.23
2013-1-31,50.8,28.7,22.2,45.6,19.0,6.8,88,67,50,30.02,29.30,34,15,59,0.28
2013-2-1,23.8,14.5,9.3,19.3,3.9,-1.7,90,63,51,30.55,29.97,22,11,42,0.00
2013-2-2,27.5,18.4,8.3,23.1,8.1,-1.4,92,65,44,30.55,30.14,9,3,20,0.00
2013-2-3,29.0,24.6,18.1,21.1,17.3,8.0,90,74,59,30.14,29.94,17,6,43,0.01
2013-2-4,33.1,23.2,18.0,30.6,15.0,6.1,96,72,48,30.22,30.00,18,7,43,0.00
2013-2-5,38.5,34.5,32.1,33.0,30.1,28.0,93,84,68,30.04,29.94,15,6,35,0.01
2013-2-6,34.9,30.3,26.9,30.9,23.6,21.0,94,76,67,30.49,30.04,16,6,32,0.01
2013-2-7,33.4,27.7,22.2,24.6,21.8,18.6,92,79,68,30.54,30.29,7,2,14,0.00
2013-2-8,36.3,30.5,24.7,33.4,25.6,17.3,96,82,67,30.27,29.94,29,10,62,0.01
2013-2-9,32.9,26.6,23.2,17.1,14.0,9.2,74,59,43,30.55,30.20,26,12,54,0.01
2013-2-10,39.2,30.2,18.4,24.3,15.8,9.0,70,56,42,30.58,30.25,5,2,15,0.00
2013-2-11,61.2,44.4,32.9,45.3,29.9,17.5,99,64,22,30.25,29.82,26,9,52,0.00
2013-2-12,48.9,40.7,35.5,26.3,20.9,16.9,60,46,29,30.11,29.92,24,13,53,0.00
2013-2-13,40.3,35.2,30.7,31.0,22.2,16.6,96,60,38,30.06,29.79,5,1,9,0.01
2013-2-16,26.9,26.9,26.9,15.6,15.6,15.6,62,62,62,30.11,30.11,6,6,6,0.00
2013-4-24,76.0,64.8,41.3,54.0,47.8,33.6,78,56,35,30.20,29.82,22,9,23,0.14
2013-4-25,58.9,47.6,35.8,32.1,25.6,15.9,72,46,19,30.43,30.20,16,9,19,0.00
2013-4-26,60.9,50.8,39.5,34.9,28.8,23.9,75,45,29,30.56,30.42,9,3,10,0.00
2013-4-27,69.4,54.4,41.6,41.7,33.5,29.4,67,47,27,30.50,30.32,8,3,9,0.00
2013-4-28,56.9,51.5,48.8,50.8,45.3,37.4,98,81,48,30.30,30.17,10,4,18,0.01
2013-4-29,58.6,51.6,47.9,53.9,49.6,45.3,98,93,80,30.18,30.10,5,2,16,0.04
2013-4-30,60.4,53.9,49.9,52.4,51.2,48.8,99,91,74,30.37,30.17,11,5,17,0.00
2013-5-1,68.3,56.0,49.4,51.4,42.1,31.5,99,66,26,30.48,30.36,10,5,21,0.00
2013-5-2,68.1,54.4,44.2,44.2,37.8,32.4,78,56,27,30.50,30.39,12,4,20,0.00
2013-5-3,66.3,56.0,44.9,45.6,41.8,35.7,86,60,46,30.43,30.32,13,6,24,0.00
2013-5-4,64.2,50.0,41.1,44.4,37.6,30.5,86,64,44,30.39,30.25,13,6,24,0.00
2013-5-5,62.6,52.5,44.1,39.5,36.6,33.5,75,56,35,30.30,30.18,12,7,23,0.00
2013-5-6,53.5,48.7,44.9,53.2,45.3,37.9,99,88,69,30.26,30.15,8,2,18,0.01
2013-5-7,56.5,54.1,51.6,56.5,54.1,51.6,100,100,99,30.14,30.02,0,0,0,0.68
2013-5-8,60.1,53.2,49.9,55.7,51.1,48.9,100,93,73,30.10,30.02,5,0,15,0.18
2013-5-13,50.1,44.8,38.0,30.3,25.6,17.9,67,48,32,30.30,30.20,17,10,36,0.00
2013-5-14,61.0,46.7,34.0,38.6,30.3,24.6,72,55,30,30.32,30.10,9,2,20,0.00
2013-5-15,85.5,66.5,47.7,56.4,45.8,35.0,70,50,29,30.09,29.80,23,7,40,0.00
2013-5-16,75.6,67.5,60.4,56.3,51.7,46.0,86,59,35,29.96,29.81,21,8,47,0.02
2013-5-20,81.2,73.3,66.8,63.6,62.6,61.0,85,70,53,30.05,30.03,4,0,12,0.00
2013-5-21,84.9,75.3,66.3,66.5,60.7,55.5,83,63,37,30.05,29.90,8,2,21,0.00
2013-5-22,81.4,70.9,61.8,65.0,59.0,52.2,96,68,47,29.99,29.89,11,2,20,0.58
2013-5-23,76.8,66.1,61.3,63.2,58.7,53.8,95,78,47,29.95,29.81,15,3,33,0.01
2013-5-24,61.5,48.2,40.2,53.4,38.5,27.8,83,69,49,30.37,29.85,21,11,43,0.00
2013-5-25,58.1,46.2,35.8,33.4,30.2,26.3,75,55,37,30.40,30.30,20,10,36,0.00
2013-5-26,65.2,51.2,41.2,33.6,29.0,22.2,66,45,21,30.37,30.29,14,8,30,0.00
2013-5-27,59.2,53.8,44.9,50.3,42.8,34.0,84,67,51,30.39,30.27,3,1,9,0.00
2013-5-28,79.8,62.2,49.9,62.2,54.6,47.5,98,79,40,30.30,30.13,9,2,24,0.05
2013-5-29,84.5,74.2,65.8,61.8,56.8,53.9,87,56,38,30.20,30.12,12,5,29,0.00
2013-5-30,84.7,75.5,66.1,65.5,60.0,56.3,73,59,42,30.26,30.16,4,1,10,0.00
2013-5-31,85.7,76.1,66.3,64.3,58.0,51.3,71,54,36,30.21,30.05,5,1,12,0.00
2013-6-1,84.5,76.1,69.9,67.0,61.7,57.8,70,61,51,30.10,29.93,6,1,14,0.00
2013-6-2,74.7,70.8,66.4,62.0,59.8,57.4,78,68,58,29.95,29.88,10,3,30,0.00
2013-6-3,71.8,65.3,56.9,61.7,57.1,49.1,90,76,56,30.10,29.92,10,3,22,0.00
2013-6-4,72.8,61.1,47.4,49.2,44.6,38.0,86,57,36,30.24,30.10,5,1,14,0.00
2013-6-5,75.1,29.2,55.0,58.9,-32.7,-99.9,68,27,53,30.23,30.05,7,-556,13,0.00
2013-6-6,61.5,30.4,59.2,60.2,-19.5,-99.9,99,48,86,30.11,29.93,7,-492,15,0.14
2013-6-7,65.6,27.6,61.3,65.6,-28.7,-99.9,100,43,97,29.93,29.76,2,-563,10,0.05
2013-6-8,75.4,42.3,58.4,59.0,-2.3,-99.9,85,42,51,30.17,29.88,7,-372,18,0.00
2013-6-9,74.9,43.4,58.9,65.2,1.9,-99.9,94,49,69,30.27,30.12,5,-369,12,0.00
2013-6-10,-200.0,0.0,200.0,-99.9,-99.9,-99.9,0,0,100,30.15,30.13,0,-999,0,0.00
2013-6-12,82.2,77.5,74.9,66.6,66.0,65.1,75,68,59,29.92,29.85,7,3,23,0.00
2013-6-13,75.3,65.8,61.2,68.2,59.7,52.5,94,81,70,29.85,29.62,21,8,40,0.55
2013-6-14,72.5,63.5,56.3,53.5,51.4,49.1,82,66,45,30.12,29.79,12,6,40,0.00
2013-6-15,76.5,65.5,56.5,56.3,51.3,43.4,88,63,32,30.20,30.10,10,3,17,0.00
2013-6-16,76.3,68.9,62.3,62.0,57.5,50.4,82,67,54,30.12,29.98,14,4,36,0.00
2013-6-17,79.8,72.2,66.8,64.5,61.8,58.6,83,70,54,30.05,29.96,8,3,17,0.00
2013-6-18,73.5,67.1,62.3,65.4,60.3,-99.9,97,84,71,30.01,29.90,3,1,10,0.13
2013-6-19,72.3,64.4,58.4,61.9,58.2,54.9,97,82,58,30.23,30.00,5,1,12,0.04
2013-6-20,78.8,67.3,57.2,64.2,60.6,56.2,99,81,53,30.31,30.23,6,1,15,0.00
2013-6-21,81.1,69.9,59.3,66.6,62.7,58.7,99,80,52,30.34,30.26,5,2,11,0.00
2013-6-22,82.6,73.3,62.4,67.5,62.4,58.5,91,69,55,30.30,30.17,4,1,10,0.00
2013-6-23,84.0,73.5,64.2,69.5,63.5,59.2,92,72,52,30.26,30.13,4,1,11,0.00
2013-6-24,84.3,74.8,67.6,69.6,65.3,61.4,92,73,51,30.22,30.10,6,1,16,0.00
2013-6-25,87.4,76.6,70.1,67.5,64.0,60.1,79,66,40,30.12,29.96,11,4,25,0.00
2013-6-26,80.1,73.2,65.0,68.7,64.9,60.6,93,76,59,30.00,29.90,8,2,18,0.26
2013-6-27,72.5,67.4,63.5,67.3,64.8,62.6,99,92,74,29.90,29.74,7,2,17,0.67
2013-6-28,77.0,69.1,62.4,66.3,62.9,57.5,96,81,67,29.71,29.58,8,4,39,0.68
2013-6-29,80.5,69.7,62.3,65.9,58.5,55.7,86,69,50,29.78,29.63,8,2,24,0.68
2013-6-30,80.3,69.8,61.3,68.8,63.2,58.5,94,80,59,29.87,29.77,6,1,13,0.00
2013-7-1,78.1,69.8,63.5,70.4,66.1,63.2,99,89,70,30.02,29.91,4,1,12,0.01
2013-7-2,77.2,70.2,66.4,71.1,67.1,64.6,100,91,69,30.17,30.02,4,1,11,0.01
2013-7-3,81.1,71.6,67.3,71.1,66.5,63.4,93,84,70,30.27,30.17,4,1,12,0.00
2013-7-4,83.4,74.2,67.6,70.6,67.4,64.8,95,80,62,30.29,30.19,6,1,15,0.00
2013-7-5,83.8,73.8,68.3,72.7,66.7,64.8,91,79,60,30.26,30.16,7,1,14,0.01
2013-7-6,86.1,75.4,67.6,69.4,66.8,63.4,93,76,55,30.26,30.10,4,1,13,0.01
2013-7-7,81.4,72.4,66.1,70.7,65.9,63.1,96,80,68,30.17,30.10,8,1,24,0.54
2013-7-8,80.3,73.5,66.4,65.4,63.0,58.6,89,71,56,30.20,30.12,8,4,17,0.00
2013-7-9,82.0,74.7,69.3,69.8,66.1,63.2,91,75,60,30.18,30.06,5,2,20,0.01
2013-7-10,79.6,72.3,69.1,68.1,65.4,60.4,92,80,64,30.09,29.93,10,4,24,0.04
2013-7-11,76.0,70.5,62.9,67.5,63.0,60.0,94,77,67,30.08,29.93,5,1,15,0.58
2013-7-12,67.4,63.0,60.5,64.1,62.0,60.2,99,97,83,30.18,30.03,4,1,11,0.01
2013-7-13,77.2,69.5,63.2,68.6,65.9,62.9,99,89,71,30.33,30.18,6,1,17,0.01
2013-7-14,83.2,75.3,68.3,69.9,67.1,64.2,99,77,57,30.39,30.33,4,1,14,0.00
2013-7-15,88.6,77.0,67.3,70.8,66.2,63.3,90,71,47,30.40,30.29,2,0,7,0.00
2013-7-16,89.5,78.7,72.8,73.8,68.7,65.2,83,72,53,30.36,30.25,9,1,17,0.00
2013-7-17,89.9,79.6,71.5,74.0,69.8,67.4,93,73,51,30.33,30.18,6,1,14,0.00
2013-7-18,88.8,79.4,72.1,74.7,70.5,66.8,89,75,56,30.22,30.09,2,0,9,0.00
2013-7-19,86.5,79.0,74.4,73.9,70.7,68.3,88,76,60,30.09,30.04,6,1,12,0.00
2013-7-20,82.4,78.4,73.9,68.1,66.0,62.5,80,67,56,29.97,29.92,13,6,28,0.00
2013-7-21,70.9,70.4,70.1,69.5,66.7,61.0,98,89,71,30.02,29.98,0,0,28,0.00
2013-7-22,69.9,68.4,67.9,69.6,68.3,67.9,100,100,99,30.04,29.87,0,0,5,1.48
2013-7-23,74.9,68.8,66.8,68.0,66.6,63.3,99,93,70,29.85,29.81,9,2,20,0.01
2013-8-1,74.6,74.6,74.6,60.7,60.7,60.7,62,62,62,29.92,29.92,7,7,14,0.00
2013-8-3,65.0,65.0,65.0,63.2,63.2,63.2,94,94,94,30.02,30.02,3,3,3,0.00
2013-8-4,69.9,64.4,58.0,60.6,56.7,54.0,96,77,57,30.12,30.05,10,5,17,0.04
2013-8-5,73.5,65.9,58.3,52.6,52.2,51.8,79,64,48,30.17,30.14,0,0,9,0.00
2013-8-6,61.2,60.2,59.2,52.0,51.5,50.9,77,73,69,30.09,30.08,0,0,5,0.00
2013-8-7,67.9,66.3,64.0,67.3,65.8,63.7,99,98,98,30.13,30.10,0,0,6,0.55
2013-8-8,73.0,68.1,64.8,72.7,68.0,64.5,100,100,99,30.10,30.03,4,0,6,1.32
2013-8-9,73.2,71.1,69.6,70.0,69.1,68.5,100,93,86,30.01,29.99,3,2,11,1.35
2013-8-10,81.6,73.1,66.8,66.5,63.9,58.3,95,75,55,30.17,30.07,4,1,10,0.00
2013-8-11,82.2,72.3,64.5,69.2,63.7,58.8,95,75,60,30.19,30.08,3,1,10,0.00
2013-8-12,79.9,70.2,66.6,64.2,63.5,62.8,89,81,56,30.10,30.07,5,2,12,0.00
2013-8-13,63.5,63.5,63.5,62.3,62.3,62.3,96,96,96,29.90,29.90,0,0,16,0.00
2013-8-14,56.3,56.1,55.9,47.4,47.2,47.0,73,72,71,30.02,30.02,7,7,18,0.00
2013-8-15,71.3,59.5,50.8,53.3,50.0,46.7,94,74,47,30.30,30.20,4,0,9,0.00
2013-8-16,66.9,58.2,52.0,55.4,50.5,48.0,90,76,60,30.28,30.23,3,1,7,0.00
2013-8-17,71.1,62.7,53.9,58.6,55.0,52.1,96,77,58,30.37,30.27,6,2,13,0.00
2013-8-18,65.0,60.3,56.5,59.8,57.8,55.2,97,92,74,30.37,30.28,2,0,7,0.08
2013-8-19,75.3,64.0,59.8,68.3,61.9,59.2,100,94,72,30.28,30.16,2,0,5,0.08
2013-8-20,76.0,66.1,62.4,64.6,61.9,58.8,97,88,60,30.28,30.18,3,1,6,0.00
2013-8-21,80.1,68.2,62.1,70.1,63.9,60.2,97,86,67,30.28,30.15,4,1,13,0.00
2013-8-22,78.5,70.4,67.1,66.0,63.3,60.3,87,79,63,30.17,30.06,7,4,20,0.00
2013-8-23,68.6,65.2,61.0,65.2,59.0,54.4,99,81,69,30.25,30.14,4,1,14,0.10
2013-8-24,75.6,65.2,56.0,62.8,57.2,53.5,100,77,54,30.42,30.25,3,0,9,0.10
2013-8-25,76.1,62.5,56.0,62.5,57.6,54.7,97,85,54,30.49,30.40,2,1,10,0.00
2013-9-2,76.0,75.4,74.9,68.7,68.1,67.5,81,78,75,29.89,29.89,5,2,7,0.00
2013-9-3,72.8,67.2,60.9,54.7,54.2,53.9,78,64,53,30.09,29.97,11,5,21,0.00
2013-9-4,69.4,62.5,56.6,54.4,54.2,54.0,92,76,58,30.19,30.11,3,1,9,0.00
2013-9-5,73.3,70.1,66.8,58.2,56.4,54.6,74,63,52,30.18,30.15,9,6,9,0.00
2013-9-6,69.9,63.0,49.4,50.1,48.6,45.4,86,61,47,30.37,30.26,3,2,22,0.00
2013-9-7,78.6,56.8,50.5,51.0,47.3,45.7,88,73,34,30.24,30.06,4,1,5,0.00
2013-9-8,80.7,72.5,66.3,64.1,59.2,52.0,77,64,55,30.10,29.97,7,4,17,0.00
2013-9-9,73.9,62.5,58.6,60.8,53.0,47.7,89,71,62,30.26,30.11,2,1,10,0.00
2013-9-10,86.5,76.4,66.4,70.5,66.9,63.1,89,73,59,30.24,30.15,4,2,11,0.00
2013-9-11,83.4,79.1,75.8,70.4,67.8,64.4,76,69,62,30.20,30.09,4,2,12,0.00
2013-9-12,83.4,73.2,67.3,68.9,64.7,61.0,83,75,56,30.05,29.85,8,5,22,0.00
2013-9-13,68.1,59.8,49.5,60.5,52.1,42.2,92,77,49,30.09,29.83,9,5,19,0.04
2013-9-14,63.4,52.5,45.4,45.0,42.8,41.7,87,71,50,30.28,30.09,6,2,14,0.00
2013-9-15,73.2,59.3,48.5,55.8,49.3,42.6,85,70,51,30.31,30.17,4,2,17,0.00
2013-9-16,64.7,60.4,56.3,55.3,52.8,49.8,95,77,60,30.35,30.11,5,2,17,0.00
2013-9-17,59.0,53.1,48.9,50.3,45.4,37.1,92,76,51,30.52,30.38,5,1,13,0.00
2013-9-18,57.2,48.8,42.8,50.5,42.9,39.6,94,80,66,30.42,30.28,3,1,7,0.00
2013-9-19,72.8,61.8,53.5,58.0,54.2,49.1,92,77,58,30.27,30.15,5,1,12,0.00
2013-9-20,75.1,62.0,57.0,62.1,58.7,56.7,99,90,64,30.15,30.06,2,1,10,0.00
2013-9-21,66.8,60.8,56.6,63.5,59.1,54.6,99,94,89,29.94,29.76,5,2,17,0.16
2013-9-22,62.6,57.9,53.5,53.0,48.2,42.9,92,71,56,30.04,29.85,7,5,17,0.00
2013-9-23,61.5,49.1,45.1,45.1,42.4,40.7,92,79,50,30.24,30.09,4,1,13,0.00
2013-9-24,69.6,57.5,39.2,50.7,46.6,38.7,98,69,51,30.26,30.07,3,1,9,0.00
2013-9-25,70.8,57.1,45.4,51.5,48.6,44.1,97,75,49,30.08,29.99,3,1,13,0.00
2013-9-26,71.6,58.5,49.2,49.9,46.6,43.9,92,67,37,30.17,30.02,4,2,9,0.00
2013-9-27,72.1,60.3,48.5,52.3,49.0,47.0,96,70,42,30.30,30.18,3,1,14,0.00
2013-9-28,65.0,56.2,51.6,56.6,50.7,47.5,100,84,57,30.41,30.30,7,2,13,0.00
2013-9-29,70.1,56.6,47.0,50.4,48.9,46.5,99,78,49,30.30,30.15,4,1,12,0.00
2013-9-30,72.0,60.2,49.6,56.8,52.7,48.1,96,77,56,30.17,30.08,3,1,10,0.00
2013-10-1,75.8,64.5,58.6,56.2,54.7,53.3,83,72,47,30.18,30.08,7,3,14,0.00
2013-10-2,76.0,67.8,63.2,58.6,56.8,55.3,80,69,49,30.18,30.11,9,4,21,0.00
2013-10-3,80.9,73.0,60.4,60.6,59.0,57.5,92,63,47,30.21,30.10,3,1,10,0.00
2013-10-4,81.8,72.9,66.4,61.3,60.0,58.4,80,66,45,30.19,30.10,7,4,17,0.00
2013-10-5,79.4,73.3,68.8,63.4,61.4,59.9,78,67,54,30.17,30.06,6,2,16,0.00
2013-10-6,68.1,66.3,64.5,60.2,59.3,58.5,81,78,76,30.06,30.04,1,0,3,0.00
2013-10-7,66.6,60.9,50.8,61.5,55.2,41.7,94,82,71,30.14,29.81,12,7,35,0.03
2013-10-8,63.1,54.3,48.0,44.9,41.8,39.9,78,64,44,30.40,30.21,9,2,35,0.01
2013-10-9,55.6,52.0,47.6,44.8,42.2,37.1,81,69,57,30.45,30.39,4,2,13,0.01
2013-10-10,52.6,50.1,47.1,52.1,45.7,40.3,100,86,68,30.36,30.19,3,0,9,0.00
2013-10-11,56.5,54.0,51.0,56.2,53.9,51.0,100,100,99,30.17,30.13,2,1,10,0.00
2013-10-12,59.2,56.4,54.8,59.2,56.3,54.7,100,99,94,30.30,30.14,5,2,20,0.00
2013-10-13,56.9,54.7,53.9,56.9,54.6,53.9,100,100,99,30.42,30.30,5,2,12,0.00
2013-10-14,56.2,54.9,53.5,56.2,54.9,53.5,100,100,100,30.42,30.34,2,0,10,0.00
2013-10-15,64.7,57.6,54.4,56.5,53.7,50.8,100,88,69,30.33,30.15,4,1,11,0.00
2013-10-16,66.0,57.2,50.5,56.5,52.3,49.6,99,84,68,30.15,30.00,3,1,6,0.00
2013-10-17,63.1,59.9,49.9,61.3,55.9,42.6,99,87,76,29.99,29.77,16,4,34,0.01
2013-10-18,61.0,50.9,45.2,43.9,38.0,36.6,81,62,42,30.13,29.99,10,5,24,0.01
2013-10-19,53.2,46.6,40.1,47.2,39.1,33.6,92,75,63,30.09,29.90,11,3,28,0.00
2013-10-20,57.5,47.6,39.6,34.5,32.1,29.3,77,57,35,30.20,30.05,8,5,28,0.00
2013-10-21,66.1,51.3,39.2,41.2,34.9,29.4,71,54,35,30.23,30.00,4,1,14,0.00
2013-10-22,55.0,49.4,39.6,43.8,35.7,28.4,77,60,41,30.00,29.92,10,4,21,0.00
2013-10-23,42.2,38.7,35.8,38.6,34.0,31.6,96,83,66,30.08,29.85,11,3,21,0.00
2013-10-24,40.5,36.5,33.7,31.9,28.2,24.0,89,72,57,30.28,30.07,12,7,29,0.00
2013-10-25,41.6,36.3,33.5,29.5,27.4,26.1,78,70,57,30.46,30.28,10,4,26,0.00
2013-10-26,54.5,42.3,31.6,27.6,23.5,16.0,73,50,23,30.44,30.06,18,4,35,0.00
2013-10-27,53.2,46.2,40.1,32.4,30.7,29.2,70,55,41,30.24,30.06,11,5,27,0.00
2013-10-28,59.2,47.4,34.7,39.0,34.6,31.2,87,63,46,30.38,30.23,5,1,10,0.00
2013-10-29,59.9,48.9,37.3,38.4,35.3,32.2,82,60,41,30.48,30.38,4,1,9,0.00
2013-10-30,60.4,53.7,45.8,49.8,43.3,36.1,76,68,62,30.38,30.24,1,0,5,0.00
2013-10-31,65.8,59.8,55.1,55.7,52.7,48.4,91,78,58,30.25,29.76,12,2,30,0.01
2013-11-1,66.0,59.9,54.1,56.6,45.5,40.8,88,60,42,29.79,29.54,17,10,47,0.05
2013-11-2,54.4,49.3,42.9,42.2,38.3,34.7,76,66,54,30.01,29.74,13,7,30,0.00
2013-11-3,50.4,41.8,36.2,36.4,28.5,18.4,78,61,29,30.55,30.03,13,7,29,0.00
2013-11-4,39.5,33.5,27.2,24.5,20.9,18.8,76,60,46,30.74,30.54,8,3,14,0.00
2013-11-5,44.3,42.1,39.9,25.8,25.2,24.6,54,51,48,30.61,30.58,1,0,7,0.00
2013-11-6,64.2,46.0,39.1,47.2,36.3,27.6,83,70,54,30.53,30.30,5,2,5,0.00
2013-11-7,57.3,49.8,45.1,49.8,42.9,33.1,89,78,59,30.10,29.96,20,10,34,0.01
2013-11-8,36.2,36.2,36.2,21.6,21.6,21.6,55,55,55,30.40,30.40,4,4,20,0.00
2013-11-9,34.0,33.0,32.1,22.0,22.0,22.0,66,64,61,30.44,30.42,2,2,6,0.00
2013-11-10,47.0,44.9,39.5,29.8,25.4,23.8,54,46,41,30.37,30.11,21,17,46,0.00
2013-11-11,53.8,48.6,35.5,28.4,16.3,4.0,67,32,13,30.40,30.11,14,6,28,0.00
2013-11-12,44.5,37.8,31.0,31.1,23.7,16.3,59,56,54,30.43,30.11,15,12,15,0.00
2013-11-13,32.8,27.7,23.6,17.5,16.2,14.2,71,62,51,30.66,30.53,16,9,33,0.00
2013-11-14,51.0,41.0,29.8,13.0,8.9,1.5,47,28,17,30.52,30.33,17,8,36,0.00
2013-11-15,56.7,50.3,44.9,38.1,17.8,8.5,72,30,19,30.36,30.25,11,4,22,0.02
2013-11-16,57.2,47.9,42.5,46.1,41.6,37.5,93,79,61,30.37,30.27,4,1,10,0.06
2013-11-17,57.8,52.7,47.0,53.7,49.1,45.6,97,88,78,30.24,29.78,11,2,37,0.04
2013-11-18,56.2,50.5,40.9,44.8,31.3,22.8,80,49,30,30.08,29.80,22,14,48,0.10
2013-11-19,40.1,34.7,32.4,24.1,22.2,20.7,64,60,50,30.38,30.08,22,13,50,0.00
2013-11-20,38.3,31.3,27.0,20.0,18.1,14.5,72,59,42,30.63,30.53,7,3,15,0.00
2013-11-21,42.6,39.4,29.4,30.9,27.9,18.0,66,63,60,30.62,30.53,4,1,7,0.00
2013-11-22,56.5,48.3,39.9,49.4,41.7,32.9,86,78,75,30.35,30.23,8,3,27,0.02
2013-11-23,34.9,27.7,20.5,22.2,16.6,8.8,73,63,58,30.39,30.26,22,18,40,0.00
2013-11-24,19.7,16.7,15.1,7.8,4.0,1.3,66,57,44,30.68,30.44,22,16,40,0.00
2013-11-25,33.8,24.1,15.6,4.1,2.9,2.1,56,42,28,30.68,30.42,6,2,10,0.00
2013-11-27,32.1,28.3,24.5,29.8,24.8,20.4,91,87,84,29.98,29.79,0,0,0,0.00
2013-11-28,25.0,22.3,19.4,17.9,15.1,11.0,76,73,69,30.55,30.32,9,4,21,0.00
2013-11-29,32.1,30.1,28.1,22.4,21.5,20.6,73,70,67,30.76,30.74,2,1,11,0.00
2013-11-30,27.6,23.3,19.4,20.1,18.6,16.7,89,82,73,30.81,30.53,3,1,4,0.01
2013-12-1,45.2,39.7,24.8,34.3,29.5,19.8,81,68,55,30.46,30.09,5,3,15,0.01
2013-12-2,44.1,41.8,39.2,33.5,32.4,31.7,75,69,63,30.07,29.97,4,2,12,0.01
2013-12-3,52.0,41.1,36.2,36.3,33.2,29.6,86,75,55,30.06,29.98,4,1,7,0.00
2013-12-4,50.5,42.2,38.2,39.6,35.7,33.9,87,78,66,30.16,30.07,3,1,7,0.00
2013-12-5,58.6,58.6,58.6,48.8,48.8,48.8,70,70,70,30.03,30.03,6,6,6,0.00
2013-12-6,38.6,37.5,35.3,37.3,36.4,34.8,98,96,95,30.24,30.17,3,2,10,0.17
2013-12-7,29.1,27.7,24.8,23.7,20.1,16.6,80,73,69,30.68,30.50,11,6,24,0.00
2013-12-8,21.3,19.9,19.2,18.0,16.9,14.9,93,88,76,30.69,30.55,0,0,3,0.00
2013-12-9,35.9,29.4,24.5,29.6,26.0,23.3,98,88,74,30.33,30.23,10,1,23,0.35
2013-12-10,32.1,26.9,23.6,26.1,17.0,11.0,87,66,56,30.38,30.14,17,5,31,0.35
2013-12-11,33.2,26.3,19.9,17.2,11.6,7.4,67,54,36,30.54,30.36,16,2,25,0.00
2013-12-12,27.0,20.2,16.7,17.7,5.3,0.2,75,53,39,30.55,30.37,16,3,26,0.00
2013-12-13,35.3,28.4,20.8,14.9,8.3,0.6,52,42,36,30.42,30.34,6,0,23,0.00
2013-12-14,34.7,30.1,28.1,29.9,25.1,11.0,99,85,37,30.39,29.91,0,0,1,0.00
2013-12-15,35.5,29.9,26.1,35.3,24.7,17.9,100,81,69,30.08,29.77,15,3,25,0.13
2013-12-16,29.1,27.3,25.0,22.7,20.6,18.8,83,76,67,30.28,30.08,12,1,25,0.00
2013-12-17,37.5,30.9,25.1,34.7,26.6,20.2,97,85,66,30.23,30.03,15,2,24,0.08
2013-12-18,33.5,28.3,25.3,21.5,17.6,11.9,83,64,41,30.34,30.11,14,2,25,0.08
2013-12-19,54.8,46.7,30.3,31.8,20.7,7.2,47,36,27,30.29,30.16,7,1,22,0.00
2013-12-20,58.9,54.0,49.5,45.6,33.6,18.1,71,47,26,30.17,30.02,1,0,11,0.00
2013-12-21,69.3,60.7,55.0,56.0,48.1,42.5,79,64,46,30.06,29.88,0,0,7,0.01
2013-12-22,66.0,62.8,59.5,57.1,54.8,51.9,87,75,67,30.00,29.77,17,1,26,0.02
2014-1-1,45.1,37.9,31.6,20.3,19.2,16.8,62,48,32,30.39,30.22,0,0,3,0.00
2014-1-2,30.9,26.2,16.5,24.7,21.6,9.0,96,83,64,30.21,29.81,7,0,26,0.00